sensor_id;sensor_type;location;lat;lon;timestamp;P1;durP1;ratioP1;P2;durP2;ratioP2
12194;SDS011;27023;42.680;23.132;2022-09-09T00:00:46;2.10;;;2.00;;
12194;SDS011;27023;42.680;23.132;2022-09-09T00:03:17;2.63;;;2.53;;
12194;SDS011;27023;42.680;23.132;2022-09-09T00:05:50;1.98;;;1.88;;
12194;SDS011;27023;42.680;23.132;2022-09-09T00:08:24;2.75;;;2.60;;
12194;SDS011;27023;42.680;23.132;2022-09-09T00:11:00;2.53;;;2.42;;
12194;SDS011;27023;42.680;23.132;2022-09-09T00:13:32;2.08;;;2.08;;
12194;SDS011;27023;42.680;23.132;2022-09-09T00:16:07;1.70;;;1.70;;
12194;SDS011;27023;42.680;23.132;2022-09-09T00:18:47;2.22;;;2.13;;
12194;SDS011;27023;42.680;23.132;2022-09-09T00:21:22;1.58;;;1.58;;
12194;SDS011;27023;42.680;23.132;2022-09-09T00:23:58;2.45;;;2.45;;
12194;SDS011;27023;42.680;23.132;2022-09-09T00:26:27;2.08;;;1.98;;
12194;SDS011;27023;42.680;23.132;2022-09-09T00:29:00;3.72;;;3.35;;
12194;SDS011;27023;42.680;23.132;2022-09-09T00:31:36;2.47;;;2.30;;
12194;SDS011;27023;42.680;23.132;2022-09-09T00:34:09;2.40;;;2.33;;
12194;SDS011;27023;42.680;23.132;2022-09-09T00:36:39;3.08;;;2.88;;
12194;SDS011;27023;42.680;23.132;2022-09-09T00:39:09;2.33;;;2.13;;
12194;SDS011;27023;42.680;23.132;2022-09-09T00:41:55;2.83;;;2.00;;
12194;SDS011;27023;42.680;23.132;2022-09-09T00:44:37;2.75;;;2.65;;
12194;SDS011;27023;42.680;23.132;2022-09-09T00:47:07;2.58;;;2.45;;
12194;SDS011;27023;42.680;23.132;2022-09-09T00:49:47;2.15;;;2.05;;
12194;SDS011;27023;42.680;23.132;2022-09-09T00:52:30;2.15;;;2.13;;
12194;SDS011;27023;42.680;23.132;2022-09-09T00:55:07;2.45;;;2.35;;
12194;SDS011;27023;42.680;23.132;2022-09-09T00:57:41;1.83;;;1.73;;
12194;SDS011;27023;42.680;23.132;2022-09-09T01:00:18;2.70;;;2.50;;
12194;SDS011;27023;42.680;23.132;2022-09-09T01:02:52;2.97;;;2.88;;
12194;SDS011;27023;42.680;23.132;2022-09-09T01:05:30;1.95;;;1.85;;
12194;SDS011;27023;42.680;23.132;2022-09-09T01:08:06;2.10;;;2.00;;
12194;SDS011;27023;42.680;23.132;2022-09-09T01:10:43;1.85;;;1.85;;
12194;SDS011;27023;42.680;23.132;2022-09-09T01:13:24;2.38;;;2.28;;
12194;SDS011;27023;42.680;23.132;2022-09-09T01:15:55;1.30;;;1.30;;
12194;SDS011;27023;42.680;23.132;2022-09-09T01:18:26;2.08;;;2.00;;
12194;SDS011;27023;42.680;23.132;2022-09-09T01:21:01;1.90;;;1.85;;
12194;SDS011;27023;42.680;23.132;2022-09-09T01:23:40;2.10;;;2.00;;
12194;SDS011;27023;42.680;23.132;2022-09-09T01:26:17;1.60;;;1.60;;
12194;SDS011;27023;42.680;23.132;2022-09-09T01:28:47;1.33;;;1.33;;
12194;SDS011;27023;42.680;23.132;2022-09-09T01:31:18;2.23;;;2.13;;
12194;SDS011;27023;42.680;23.132;2022-09-09T01:33:48;1.70;;;1.70;;
12194;SDS011;27023;42.680;23.132;2022-09-09T01:36:17;2.40;;;2.30;;
12194;SDS011;27023;42.680;23.132;2022-09-09T01:38:50;2.23;;;2.13;;
12194;SDS011;27023;42.680;23.132;2022-09-09T01:41:18;2.63;;;2.27;;
12194;SDS011;27023;42.680;23.132;2022-09-09T01:43:45;3.00;;;2.90;;
12194;SDS011;27023;42.680;23.132;2022-09-09T01:46:12;3.10;;;2.93;;
12194;SDS011;27023;42.680;23.132;2022-09-09T01:48:40;3.50;;;2.40;;
12194;SDS011;27023;42.680;23.132;2022-09-09T01:51:08;2.10;;;2.00;;
12194;SDS011;27023;42.680;23.132;2022-09-09T01:53:35;2.37;;;2.27;;
12194;SDS011;27023;42.680;23.132;2022-09-09T01:56:04;3.00;;;2.80;;
12194;SDS011;27023;42.680;23.132;2022-09-09T01:58:44;2.47;;;2.37;;
12194;SDS011;27023;42.680;23.132;2022-09-09T02:01:27;1.93;;;1.93;;
12194;SDS011;27023;42.680;23.132;2022-09-09T02:04:08;2.83;;;2.73;;
12194;SDS011;27023;42.680;23.132;2022-09-09T02:06:44;1.90;;;1.80;;
12194;SDS011;27023;42.680;23.132;2022-09-09T02:09:14;2.33;;;2.13;;
12194;SDS011;27023;42.680;23.132;2022-09-09T02:11:47;2.23;;;2.10;;
12194;SDS011;27023;42.680;23.132;2022-09-09T02:14:17;2.07;;;1.97;;
12194;SDS011;27023;42.680;23.132;2022-09-09T02:16:50;2.23;;;2.13;;
12194;SDS011;27023;42.680;23.132;2022-09-09T02:19:21;2.20;;;2.00;;
12194;SDS011;27023;42.680;23.132;2022-09-09T02:21:52;3.93;;;3.87;;
12194;SDS011;27023;42.680;23.132;2022-09-09T02:24:22;2.50;;;2.40;;
12194;SDS011;27023;42.680;23.132;2022-09-09T02:26:50;9.23;;;8.87;;
12194;SDS011;27023;42.680;23.132;2022-09-09T02:29:23;3.77;;;3.67;;
12194;SDS011;27023;42.680;23.132;2022-09-09T02:31:53;2.30;;;2.30;;
12194;SDS011;27023;42.680;23.132;2022-09-09T02:34:23;3.90;;;3.80;;
12194;SDS011;27023;42.680;23.132;2022-09-09T02:36:53;2.60;;;2.50;;
12194;SDS011;27023;42.680;23.132;2022-09-09T02:39:21;15.73;;;14.93;;
12194;SDS011;27023;42.680;23.132;2022-09-09T02:41:47;21.80;;;20.90;;
12194;SDS011;27023;42.680;23.132;2022-09-09T02:44:14;2.63;;;2.60;;
12194;SDS011;27023;42.680;23.132;2022-09-09T02:46:49;11.33;;;10.87;;
12194;SDS011;27023;42.680;23.132;2022-09-09T02:49:29;14.40;;;13.80;;
12194;SDS011;27023;42.680;23.132;2022-09-09T02:52:06;31.67;;;30.20;;
12194;SDS011;27023;42.680;23.132;2022-09-09T02:54:37;29.27;;;27.97;;
12194;SDS011;27023;42.680;23.132;2022-09-09T02:57:06;27.73;;;26.53;;
12194;SDS011;27023;42.680;23.132;2022-09-09T02:59:36;20.93;;;20.03;;
12194;SDS011;27023;42.680;23.132;2022-09-09T03:02:05;25.93;;;24.83;;
12194;SDS011;27023;42.680;23.132;2022-09-09T03:04:32;11.83;;;11.30;;
12194;SDS011;27023;42.680;23.132;2022-09-09T03:06:59;17.07;;;16.43;;
12194;SDS011;27023;42.680;23.132;2022-09-09T03:09:26;30.70;;;29.30;;
12194;SDS011;27023;42.680;23.132;2022-09-09T03:11:52;26.13;;;25.03;;
12194;SDS011;27023;42.680;23.132;2022-09-09T03:14:20;17.13;;;16.53;;
12194;SDS011;27023;42.680;23.132;2022-09-09T03:16:49;20.17;;;19.37;;
12194;SDS011;27023;42.680;23.132;2022-09-09T03:19:17;18.87;;;18.10;;
12194;SDS011;27023;42.680;23.132;2022-09-09T03:21:44;24.53;;;23.50;;
12194;SDS011;27023;42.680;23.132;2022-09-09T03:24:11;26.20;;;25.10;;
12194;SDS011;27023;42.680;23.132;2022-09-09T03:26:39;16.27;;;15.67;;
12194;SDS011;27023;42.680;23.132;2022-09-09T03:29:06;24.97;;;23.87;;
12194;SDS011;27023;42.680;23.132;2022-09-09T03:31:33;23.67;;;22.67;;
12194;SDS011;27023;42.680;23.132;2022-09-09T03:34:00;22.20;;;21.30;;
12194;SDS011;27023;42.680;23.132;2022-09-09T03:36:29;24.30;;;23.30;;
12194;SDS011;27023;42.680;23.132;2022-09-09T03:38:56;14.30;;;13.77;;
12194;SDS011;27023;42.680;23.132;2022-09-09T03:41:24;19.47;;;18.63;;
12194;SDS011;27023;42.680;23.132;2022-09-09T03:43:51;24.13;;;22.87;;
12194;SDS011;27023;42.680;23.132;2022-09-09T03:46:18;34.87;;;33.27;;
12194;SDS011;27023;42.680;23.132;2022-09-09T03:48:46;27.93;;;26.63;;
12194;SDS011;27023;42.680;23.132;2022-09-09T03:51:13;27.80;;;26.50;;
12194;SDS011;27023;42.680;23.132;2022-09-09T03:53:41;3.97;;;3.83;;
12194;SDS011;27023;42.680;23.132;2022-09-09T03:56:08;22.53;;;21.63;;
12194;SDS011;27023;42.680;23.132;2022-09-09T03:58:35;8.43;;;8.07;;
12194;SDS011;27023;42.680;23.132;2022-09-09T04:01:03;30.03;;;28.70;;
12194;SDS011;27023;42.680;23.132;2022-09-09T04:03:33;33.23;;;31.67;;
12194;SDS011;27023;42.680;23.132;2022-09-09T04:06:00;31.50;;;30.00;;
12194;SDS011;27023;42.680;23.132;2022-09-09T04:08:28;30.13;;;28.73;;
12194;SDS011;27023;42.680;23.132;2022-09-09T04:10:57;31.60;;;30.20;;
12194;SDS011;27023;42.680;23.132;2022-09-09T04:13:27;31.47;;;30.03;;
12194;SDS011;27023;42.680;23.132;2022-09-09T04:15:54;29.93;;;28.60;;
12194;SDS011;27023;42.680;23.132;2022-09-09T04:18:23;16.97;;;16.27;;
12194;SDS011;27023;42.680;23.132;2022-09-09T04:20:51;16.70;;;16.03;;
12194;SDS011;27023;42.680;23.132;2022-09-09T04:23:19;21.00;;;20.17;;
12194;SDS011;27023;42.680;23.132;2022-09-09T04:25:46;20.80;;;19.93;;
12194;SDS011;27023;42.680;23.132;2022-09-09T04:28:16;17.93;;;17.23;;
12194;SDS011;27023;42.680;23.132;2022-09-09T04:30:44;18.73;;;17.93;;
12194;SDS011;27023;42.680;23.132;2022-09-09T04:33:12;16.07;;;15.47;;
12194;SDS011;27023;42.680;23.132;2022-09-09T04:35:39;25.03;;;23.93;;
12194;SDS011;27023;42.680;23.132;2022-09-09T04:38:11;22.30;;;21.40;;
12194;SDS011;27023;42.680;23.132;2022-09-09T04:40:37;21.77;;;20.87;;
12194;SDS011;27023;42.680;23.132;2022-09-09T04:43:08;18.07;;;17.37;;
12194;SDS011;27023;42.680;23.132;2022-09-09T04:45:36;17.77;;;17.07;;
12194;SDS011;27023;42.680;23.132;2022-09-09T04:48:05;23.10;;;22.10;;
12194;SDS011;27023;42.680;23.132;2022-09-09T04:50:32;20.00;;;19.20;;
12194;SDS011;27023;42.680;23.132;2022-09-09T04:52:59;18.93;;;18.20;;
12194;SDS011;27023;42.680;23.132;2022-09-09T04:55:27;16.10;;;15.50;;
12194;SDS011;27023;42.680;23.132;2022-09-09T04:57:54;17.50;;;16.80;;
12194;SDS011;27023;42.680;23.132;2022-09-09T05:00:22;15.87;;;15.27;;
12194;SDS011;27023;42.680;23.132;2022-09-09T05:02:50;12.83;;;12.37;;
12194;SDS011;27023;42.680;23.132;2022-09-09T05:05:17;15.50;;;14.90;;
12194;SDS011;27023;42.680;23.132;2022-09-09T05:07:44;7.77;;;7.53;;
12194;SDS011;27023;42.680;23.132;2022-09-09T05:10:12;11.87;;;11.33;;
12194;SDS011;27023;42.680;23.132;2022-09-09T05:12:41;13.33;;;12.80;;
12194;SDS011;27023;42.680;23.132;2022-09-09T05:15:09;17.53;;;16.73;;
12194;SDS011;27023;42.680;23.132;2022-09-09T05:17:36;7.77;;;7.47;;
12194;SDS011;27023;42.680;23.132;2022-09-09T05:20:05;2.07;;;2.07;;
12194;SDS011;27023;42.680;23.132;2022-09-09T05:22:32;2.80;;;2.70;;
12194;SDS011;27023;42.680;23.132;2022-09-09T05:24:59;2.63;;;2.53;;
12194;SDS011;27023;42.680;23.132;2022-09-09T05:27:26;3.63;;;3.00;;
12194;SDS011;27023;42.680;23.132;2022-09-09T05:29:53;2.83;;;2.73;;
12194;SDS011;27023;42.680;23.132;2022-09-09T05:32:19;6.60;;;6.33;;
12194;SDS011;27023;42.680;23.132;2022-09-09T05:34:46;5.50;;;5.27;;
12194;SDS011;27023;42.680;23.132;2022-09-09T05:37:15;7.07;;;6.63;;
12194;SDS011;27023;42.680;23.132;2022-09-09T05:39:42;3.20;;;3.13;;
12194;SDS011;27023;42.680;23.132;2022-09-09T05:42:09;3.37;;;3.27;;
12194;SDS011;27023;42.680;23.132;2022-09-09T05:44:36;2.20;;;2.20;;
12194;SDS011;27023;42.680;23.132;2022-09-09T05:47:02;3.07;;;2.80;;
12194;SDS011;27023;42.680;23.132;2022-09-09T05:49:29;2.87;;;2.77;;
12194;SDS011;27023;42.680;23.132;2022-09-09T05:51:56;4.47;;;2.93;;
12194;SDS011;27023;42.680;23.132;2022-09-09T05:54:24;2.80;;;2.73;;
12194;SDS011;27023;42.680;23.132;2022-09-09T05:56:51;2.73;;;2.63;;
12194;SDS011;27023;42.680;23.132;2022-09-09T05:59:18;3.20;;;3.10;;
12194;SDS011;27023;42.680;23.132;2022-09-09T06:01:45;3.40;;;3.25;;
12194;SDS011;27023;42.680;23.132;2022-09-09T06:04:12;3.23;;;3.13;;
12194;SDS011;27023;42.680;23.132;2022-09-09T06:06:39;3.27;;;3.07;;
12194;SDS011;27023;42.680;23.132;2022-09-09T06:09:07;3.17;;;3.07;;
12194;SDS011;27023;42.680;23.132;2022-09-09T06:11:37;3.13;;;3.00;;
12194;SDS011;27023;42.680;23.132;2022-09-09T06:14:05;2.33;;;2.23;;
12194;SDS011;27023;42.680;23.132;2022-09-09T06:16:33;3.43;;;3.23;;
12194;SDS011;27023;42.680;23.132;2022-09-09T06:19:14;2.53;;;2.53;;
12194;SDS011;27023;42.680;23.132;2022-09-09T06:21:40;2.42;;;2.42;;
12194;SDS011;27023;42.680;23.132;2022-09-09T06:24:07;2.70;;;2.70;;
12194;SDS011;27023;42.680;23.132;2022-09-09T06:26:34;4.13;;;3.43;;
12194;SDS011;27023;42.680;23.132;2022-09-09T06:29:06;2.30;;;2.30;;
12194;SDS011;27023;42.680;23.132;2022-09-09T06:31:34;2.95;;;2.83;;
12194;SDS011;27023;42.680;23.132;2022-09-09T06:34:03;3.38;;;3.28;;
12194;SDS011;27023;42.680;23.132;2022-09-09T06:36:31;3.08;;;2.97;;
12194;SDS011;27023;42.680;23.132;2022-09-09T06:38:59;2.30;;;2.20;;
12194;SDS011;27023;42.680;23.132;2022-09-09T06:41:27;2.90;;;2.90;;
12194;SDS011;27023;42.680;23.132;2022-09-09T06:43:57;2.75;;;2.65;;
12194;SDS011;27023;42.680;23.132;2022-09-09T06:46:24;3.55;;;3.25;;
12194;SDS011;27023;42.680;23.132;2022-09-09T06:48:53;2.78;;;2.60;;
12194;SDS011;27023;42.680;23.132;2022-09-09T06:51:22;7.40;;;3.20;;
12194;SDS011;27023;42.680;23.132;2022-09-09T06:53:51;2.55;;;2.55;;
12194;SDS011;27023;42.680;23.132;2022-09-09T06:56:20;3.35;;;3.22;;
12194;SDS011;27023;42.680;23.132;2022-09-09T06:58:49;3.30;;;3.05;;
12194;SDS011;27023;42.680;23.132;2022-09-09T07:01:18;2.80;;;2.63;;
12194;SDS011;27023;42.680;23.132;2022-09-09T07:03:47;8.70;;;3.05;;
12194;SDS011;27023;42.680;23.132;2022-09-09T07:06:16;2.20;;;2.10;;
12194;SDS011;27023;42.680;23.132;2022-09-09T07:08:47;3.22;;;3.03;;
12194;SDS011;27023;42.680;23.132;2022-09-09T07:11:15;1.80;;;1.80;;
12194;SDS011;27023;42.680;23.132;2022-09-09T07:13:41;2.58;;;2.47;;
12194;SDS011;27023;42.680;23.132;2022-09-09T07:16:09;2.60;;;2.50;;
12194;SDS011;27023;42.680;23.132;2022-09-09T07:18:38;3.03;;;2.92;;
12194;SDS011;27023;42.680;23.132;2022-09-09T07:21:05;3.17;;;3.03;;
12194;SDS011;27023;42.680;23.132;2022-09-09T07:23:33;4.68;;;4.32;;
12194;SDS011;27023;42.680;23.132;2022-09-09T07:26:02;2.78;;;2.67;;
12194;SDS011;27023;42.680;23.132;2022-09-09T07:28:33;2.70;;;2.60;;
12194;SDS011;27023;42.680;23.132;2022-09-09T07:31:00;1.85;;;1.85;;
12194;SDS011;27023;42.680;23.132;2022-09-09T07:33:28;2.10;;;2.10;;
12194;SDS011;27023;42.680;23.132;2022-09-09T07:36:02;2.97;;;2.97;;
12194;SDS011;27023;42.680;23.132;2022-09-09T07:38:30;3.03;;;2.85;;
12194;SDS011;27023;42.680;23.132;2022-09-09T07:41:02;2.25;;;2.25;;
12194;SDS011;27023;42.680;23.132;2022-09-09T07:43:30;2.88;;;2.78;;
12194;SDS011;27023;42.680;23.132;2022-09-09T07:45:58;2.80;;;2.70;;
12194;SDS011;27023;42.680;23.132;2022-09-09T07:48:26;3.25;;;3.10;;
12194;SDS011;27023;42.680;23.132;2022-09-09T07:51:02;2.80;;;2.70;;
12194;SDS011;27023;42.680;23.132;2022-09-09T07:53:32;2.13;;;2.13;;
12194;SDS011;27023;42.680;23.132;2022-09-09T07:56:02;2.22;;;2.22;;
12194;SDS011;27023;42.680;23.132;2022-09-09T07:58:29;1.88;;;1.85;;
12194;SDS011;27023;42.680;23.132;2022-09-09T08:00:56;2.63;;;2.53;;
12194;SDS011;27023;42.680;23.132;2022-09-09T08:03:23;2.47;;;2.47;;
12194;SDS011;27023;42.680;23.132;2022-09-09T08:05:49;2.83;;;2.72;;
12194;SDS011;27023;42.680;23.132;2022-09-09T08:08:18;2.70;;;2.60;;
12194;SDS011;27023;42.680;23.132;2022-09-09T08:10:44;2.05;;;2.05;;
12194;SDS011;27023;42.680;23.132;2022-09-09T08:13:11;2.95;;;2.85;;
12194;SDS011;27023;42.680;23.132;2022-09-09T08:15:39;2.42;;;2.42;;
12194;SDS011;27023;42.680;23.132;2022-09-09T08:18:06;2.58;;;2.47;;
12194;SDS011;27023;42.680;23.132;2022-09-09T08:20:35;3.00;;;2.80;;
12194;SDS011;27023;42.680;23.132;2022-09-09T08:23:02;2.47;;;2.38;;
12194;SDS011;27023;42.680;23.132;2022-09-09T08:25:31;3.17;;;3.08;;
12194;SDS011;27023;42.680;23.132;2022-09-09T08:27:59;4.40;;;3.92;;
12194;SDS011;27023;42.680;23.132;2022-09-09T08:30:26;3.75;;;3.65;;
12194;SDS011;27023;42.680;23.132;2022-09-09T08:32:52;3.35;;;3.25;;
12194;SDS011;27023;42.680;23.132;2022-09-09T08:35:19;3.72;;;3.55;;
12194;SDS011;27023;42.680;23.132;2022-09-09T08:37:46;3.92;;;3.67;;
12194;SDS011;27023;42.680;23.132;2022-09-09T08:40:16;2.45;;;2.45;;
12194;SDS011;27023;42.680;23.132;2022-09-09T08:42:49;3.65;;;3.47;;
12194;SDS011;27023;42.680;23.132;2022-09-09T08:45:24;3.13;;;3.03;;
12194;SDS011;27023;42.680;23.132;2022-09-09T08:48:01;3.95;;;2.47;;
12194;SDS011;27023;42.680;23.132;2022-09-09T08:50:41;2.40;;;2.30;;
12194;SDS011;27023;42.680;23.132;2022-09-09T08:53:11;2.80;;;2.70;;
12194;SDS011;27023;42.680;23.132;2022-09-09T08:55:44;3.15;;;3.03;;
12194;SDS011;27023;42.680;23.132;2022-09-09T08:58:15;2.45;;;2.35;;
12194;SDS011;27023;42.680;23.132;2022-09-09T09:00:48;2.05;;;2.00;;
12194;SDS011;27023;42.680;23.132;2022-09-09T09:03:28;3.17;;;2.97;;
12194;SDS011;27023;42.680;23.132;2022-09-09T09:06:04;2.45;;;2.38;;
12194;SDS011;27023;42.680;23.132;2022-09-09T09:08:42;2.88;;;2.78;;
12194;SDS011;27023;42.680;23.132;2022-09-09T09:11:14;2.05;;;2.05;;
12194;SDS011;27023;42.680;23.132;2022-09-09T09:13:43;2.58;;;2.47;;
12194;SDS011;27023;42.680;23.132;2022-09-09T09:16:17;2.25;;;2.15;;
12194;SDS011;27023;42.680;23.132;2022-09-09T09:18:49;2.45;;;2.33;;
12194;SDS011;27023;42.680;23.132;2022-09-09T09:21:19;2.30;;;2.20;;
12194;SDS011;27023;42.680;23.132;2022-09-09T09:23:54;1.38;;;1.38;;
12194;SDS011;27023;42.680;23.132;2022-09-09T09:26:23;1.98;;;1.95;;
12194;SDS011;27023;42.680;23.132;2022-09-09T09:28:56;12.82;;;3.35;;
12194;SDS011;27023;42.680;23.132;2022-09-09T09:31:25;2.35;;;2.25;;
12194;SDS011;27023;42.680;23.132;2022-09-09T09:33:52;1.98;;;1.88;;
12194;SDS011;27023;42.680;23.132;2022-09-09T09:36:21;2.47;;;2.33;;
12194;SDS011;27023;42.680;23.132;2022-09-09T09:38:53;2.28;;;2.13;;
12194;SDS011;27023;42.680;23.132;2022-09-09T09:41:31;3.03;;;2.83;;
12194;SDS011;27023;42.680;23.132;2022-09-09T09:44:02;1.77;;;1.70;;
12194;SDS011;27023;42.680;23.132;2022-09-09T09:46:30;2.05;;;1.95;;
12194;SDS011;27023;42.680;23.132;2022-09-09T09:48:57;1.73;;;1.63;;
12194;SDS011;27023;42.680;23.132;2022-09-09T09:51:25;2.33;;;2.22;;
12194;SDS011;27023;42.680;23.132;2022-09-09T09:53:53;1.75;;;1.65;;
12194;SDS011;27023;42.680;23.132;2022-09-09T09:56:26;3.53;;;2.50;;
12194;SDS011;27023;42.680;23.132;2022-09-09T09:58:54;2.50;;;2.40;;
12194;SDS011;27023;42.680;23.132;2022-09-09T10:01:23;1.95;;;1.90;;
12194;SDS011;27023;42.680;23.132;2022-09-09T10:03:52;2.95;;;2.75;;
12194;SDS011;27023;42.680;23.132;2022-09-09T10:06:28;2.13;;;2.03;;
12194;SDS011;27023;42.680;23.132;2022-09-09T10:08:56;1.63;;;1.60;;
12194;SDS011;27023;42.680;23.132;2022-09-09T10:11:26;2.70;;;2.50;;
12194;SDS011;27023;42.680;23.132;2022-09-09T10:14:03;2.35;;;2.20;;
12194;SDS011;27023;42.680;23.132;2022-09-09T10:16:45;2.33;;;2.33;;
12194;SDS011;27023;42.680;23.132;2022-09-09T10:19:28;2.08;;;2.08;;
12194;SDS011;27023;42.680;23.132;2022-09-09T10:22:01;2.80;;;2.67;;
12194;SDS011;27023;42.680;23.132;2022-09-09T10:24:41;2.13;;;2.03;;
12194;SDS011;27023;42.680;23.132;2022-09-09T10:27:19;2.05;;;1.95;;
12194;SDS011;27023;42.680;23.132;2022-09-09T10:29:55;2.30;;;2.20;;
12194;SDS011;27023;42.680;23.132;2022-09-09T10:32:37;3.17;;;3.08;;
12194;SDS011;27023;42.680;23.132;2022-09-09T10:35:20;3.30;;;3.03;;
12194;SDS011;27023;42.680;23.132;2022-09-09T10:38:01;3.05;;;2.95;;
12194;SDS011;27023;42.680;23.132;2022-09-09T10:40:43;2.95;;;2.75;;
12194;SDS011;27023;42.680;23.132;2022-09-09T10:43:25;3.00;;;2.78;;
12194;SDS011;27023;42.680;23.132;2022-09-09T10:46:05;6.65;;;4.55;;
12194;SDS011;27023;42.680;23.132;2022-09-09T10:48:41;1.92;;;1.92;;
12194;SDS011;27023;42.680;23.132;2022-09-09T10:51:26;2.10;;;2.00;;
12194;SDS011;27023;42.680;23.132;2022-09-09T10:54:10;2.47;;;2.30;;
12194;SDS011;27023;42.680;23.132;2022-09-09T10:56:44;1.67;;;1.60;;
12194;SDS011;27023;42.680;23.132;2022-09-09T10:59:19;4.75;;;2.05;;
12194;SDS011;27023;42.680;23.132;2022-09-09T11:01:51;2.45;;;2.25;;
12194;SDS011;27023;42.680;23.132;2022-09-09T11:04:25;2.60;;;2.50;;
12194;SDS011;27023;42.680;23.132;2022-09-09T11:06:57;2.03;;;1.98;;
12194;SDS011;27023;42.680;23.132;2022-09-09T11:09:30;2.00;;;1.90;;
12194;SDS011;27023;42.680;23.132;2022-09-09T11:12:00;2.38;;;2.28;;
12194;SDS011;27023;42.680;23.132;2022-09-09T11:14:28;2.10;;;2.00;;
12194;SDS011;27023;42.680;23.132;2022-09-09T11:16:59;2.45;;;2.28;;
12194;SDS011;27023;42.680;23.132;2022-09-09T11:19:33;1.90;;;1.83;;
12194;SDS011;27023;42.680;23.132;2022-09-09T11:22:02;1.42;;;1.42;;
12194;SDS011;27023;42.680;23.132;2022-09-09T11:24:35;1.42;;;1.38;;
12194;SDS011;27023;42.680;23.132;2022-09-09T11:27:07;2.40;;;2.20;;
12194;SDS011;27023;42.680;23.132;2022-09-09T11:29:47;1.88;;;1.88;;
12194;SDS011;27023;42.680;23.132;2022-09-09T11:35:40;4.15;;;3.95;;
12194;SDS011;27023;42.680;23.132;2022-09-09T11:38:18;2.40;;;2.30;;
12194;SDS011;27023;42.680;23.132;2022-09-09T11:40:48;1.60;;;1.50;;
12194;SDS011;27023;42.680;23.132;2022-09-09T11:43:23;2.30;;;2.20;;
12194;SDS011;27023;42.680;23.132;2022-09-09T11:45:54;2.13;;;1.98;;
12194;SDS011;27023;42.680;23.132;2022-09-09T11:48:26;1.30;;;1.30;;
12194;SDS011;27023;42.680;23.132;2022-09-09T11:51:00;1.42;;;1.38;;
12194;SDS011;27023;42.680;23.132;2022-09-09T11:53:30;2.55;;;2.45;;
12194;SDS011;27023;42.680;23.132;2022-09-09T11:56:04;2.15;;;2.05;;
12194;SDS011;27023;42.680;23.132;2022-09-09T11:58:53;2.05;;;1.95;;
12194;SDS011;27023;42.680;23.132;2022-09-09T12:01:36;2.05;;;1.95;;
12194;SDS011;27023;42.680;23.132;2022-09-09T12:06:59;2.28;;;2.17;;
12194;SDS011;27023;42.680;23.132;2022-09-09T12:09:30;1.80;;;1.80;;
12194;SDS011;27023;42.680;23.132;2022-09-09T12:12:04;1.98;;;1.88;;
12194;SDS011;27023;42.680;23.132;2022-09-09T12:14:36;1.55;;;1.55;;
12194;SDS011;27023;42.680;23.132;2022-09-09T12:17:09;2.08;;;1.98;;
12194;SDS011;27023;42.680;23.132;2022-09-09T12:19:44;2.38;;;2.10;;
12194;SDS011;27023;42.680;23.132;2022-09-09T12:22:14;2.60;;;2.55;;
12194;SDS011;27023;42.680;23.132;2022-09-09T12:24:49;2.88;;;2.75;;
12194;SDS011;27023;42.680;23.132;2022-09-09T12:27:25;2.60;;;2.60;;
12194;SDS011;27023;42.680;23.132;2022-09-09T12:29:55;2.03;;;2.03;;
12194;SDS011;27023;42.680;23.132;2022-09-09T12:32:28;3.00;;;2.90;;
12194;SDS011;27023;42.680;23.132;2022-09-09T12:34:55;2.72;;;2.63;;
12194;SDS011;27023;42.680;23.132;2022-09-09T12:37:29;2.05;;;2.05;;
12194;SDS011;27023;42.680;23.132;2022-09-09T12:40:01;2.03;;;1.92;;
12194;SDS011;27023;42.680;23.132;2022-09-09T12:42:30;2.58;;;2.45;;
12194;SDS011;27023;42.680;23.132;2022-09-09T12:44:59;2.47;;;2.35;;
12194;SDS011;27023;42.680;23.132;2022-09-09T12:47:30;2.03;;;2.00;;
12194;SDS011;27023;42.680;23.132;2022-09-09T12:50:04;2.20;;;2.10;;
12194;SDS011;27023;42.680;23.132;2022-09-09T12:52:33;2.22;;;2.13;;
12194;SDS011;27023;42.680;23.132;2022-09-09T12:55:04;2.30;;;2.20;;
12194;SDS011;27023;42.680;23.132;2022-09-09T12:57:34;2.20;;;2.15;;
12194;SDS011;27023;42.680;23.132;2022-09-09T13:00:12;3.25;;;3.13;;
12194;SDS011;27023;42.680;23.132;2022-09-09T13:02:45;2.88;;;2.83;;
12194;SDS011;27023;42.680;23.132;2022-09-09T13:05:15;6.13;;;3.22;;
12194;SDS011;27023;42.680;23.132;2022-09-09T13:07:45;4.63;;;4.43;;
12194;SDS011;27023;42.680;23.132;2022-09-09T13:10:12;4.53;;;4.32;;
12194;SDS011;27023;42.680;23.132;2022-09-09T13:12:41;5.40;;;5.15;;
12194;SDS011;27023;42.680;23.132;2022-09-09T13:15:11;3.90;;;3.80;;
12194;SDS011;27023;42.680;23.132;2022-09-09T13:17:49;4.25;;;4.15;;
12194;SDS011;27023;42.680;23.132;2022-09-09T13:20:19;3.75;;;3.65;;
12194;SDS011;27023;42.680;23.132;2022-09-09T13:22:48;3.75;;;3.63;;
12194;SDS011;27023;42.680;23.132;2022-09-09T13:25:18;3.97;;;3.85;;
12194;SDS011;27023;42.680;23.132;2022-09-09T13:27:58;3.08;;;2.97;;
12194;SDS011;27023;42.680;23.132;2022-09-09T13:30:26;3.63;;;3.55;;
12194;SDS011;27023;42.680;23.132;2022-09-09T13:33:06;2.80;;;2.70;;
12194;SDS011;27023;42.680;23.132;2022-09-09T13:35:48;2.72;;;2.63;;
12194;SDS011;27023;42.680;23.132;2022-09-09T13:38:18;7.97;;;2.38;;
12194;SDS011;27023;42.680;23.132;2022-09-09T13:40:53;2.72;;;2.63;;
12194;SDS011;27023;42.680;23.132;2022-09-09T13:43:23;3.05;;;2.95;;
12194;SDS011;27023;42.680;23.132;2022-09-09T13:45:55;3.63;;;3.63;;
12194;SDS011;27023;42.680;23.132;2022-09-09T13:48:23;3.58;;;3.45;;
12194;SDS011;27023;42.680;23.132;2022-09-09T13:50:55;2.92;;;2.78;;
12194;SDS011;27023;42.680;23.132;2022-09-09T13:53:25;2.50;;;2.40;;
12194;SDS011;27023;42.680;23.132;2022-09-09T13:55:51;3.22;;;3.03;;
12194;SDS011;27023;42.680;23.132;2022-09-09T13:58:19;2.03;;;2.03;;
12194;SDS011;27023;42.680;23.132;2022-09-09T14:00:46;2.88;;;2.72;;
12194;SDS011;27023;42.680;23.132;2022-09-09T14:03:14;2.70;;;2.60;;
12194;SDS011;27023;42.680;23.132;2022-09-09T14:05:41;2.45;;;2.35;;
12194;SDS011;27023;42.680;23.132;2022-09-09T14:08:12;2.45;;;2.35;;
12194;SDS011;27023;42.680;23.132;2022-09-09T14:10:44;3.10;;;3.00;;
12194;SDS011;27023;42.680;23.132;2022-09-09T14:13:11;2.33;;;2.22;;
12194;SDS011;27023;42.680;23.132;2022-09-09T14:15:37;2.70;;;2.60;;
12194;SDS011;27023;42.680;23.132;2022-09-09T14:18:04;2.97;;;2.88;;
12194;SDS011;27023;42.680;23.132;2022-09-09T14:20:31;2.55;;;2.42;;
12194;SDS011;27023;42.680;23.132;2022-09-09T14:22:58;2.17;;;2.17;;
12194;SDS011;27023;42.680;23.132;2022-09-09T14:25:24;2.33;;;2.22;;
12194;SDS011;27023;42.680;23.132;2022-09-09T14:27:53;1.75;;;1.70;;
12194;SDS011;27023;42.680;23.132;2022-09-09T14:30:21;1.42;;;1.42;;
12194;SDS011;27023;42.680;23.132;2022-09-09T14:32:47;2.80;;;2.65;;
12194;SDS011;27023;42.680;23.132;2022-09-09T14:35:14;2.83;;;2.67;;
12194;SDS011;27023;42.680;23.132;2022-09-09T14:37:42;1.63;;;1.52;;
12194;SDS011;27023;42.680;23.132;2022-09-09T14:40:09;2.80;;;2.60;;
12194;SDS011;27023;42.680;23.132;2022-09-09T14:42:36;1.85;;;1.75;;
12194;SDS011;27023;42.680;23.132;2022-09-09T14:45:05;2.20;;;2.10;;
12194;SDS011;27023;42.680;23.132;2022-09-09T14:47:33;2.20;;;2.10;;
12194;SDS011;27023;42.680;23.132;2022-09-09T14:49:59;2.15;;;2.05;;
12194;SDS011;27023;42.680;23.132;2022-09-09T14:52:29;1.92;;;1.85;;
12194;SDS011;27023;42.680;23.132;2022-09-09T14:54:56;3.13;;;2.95;;
12194;SDS011;27023;42.680;23.132;2022-09-09T14:57:23;1.45;;;1.38;;